createdAt,value
2018-03-26T00:00:23.810Z,31.00
2018-03-26T00:02:51.402Z,27.97
2018-03-26T00:05:19.077Z,29.70
2018-03-26T00:07:46.708Z,29.57
2018-03-26T00:10:15.070Z,29.83
2018-03-26T00:12:42.754Z,27.30
2018-03-26T00:15:11.131Z,27.37
2018-03-26T00:17:39.499Z,28.30
2018-03-26T00:20:07.971Z,31.97
2018-03-26T00:22:35.554Z,31.93
2018-03-26T00:25:03.942Z,29.77
2018-03-26T00:27:31.556Z,30.13
2018-03-26T00:29:59.190Z,28.13
2018-03-26T00:32:26.791Z,29.27
2018-03-26T00:34:55.207Z,29.50
2018-03-26T00:37:22.808Z,30.63
2018-03-26T00:39:50.411Z,27.13
2018-03-26T00:42:18.800Z,29.33
2018-03-26T00:44:46.406Z,28.93
2018-03-26T00:47:14.058Z,30.00
2018-03-26T00:49:41.654Z,30.47
2018-03-26T00:52:10.028Z,33.33
2018-03-26T00:54:38.437Z,29.37
2018-03-26T00:57:06.815Z,26.90
2018-03-26T00:59:34.445Z,29.53
2018-03-26T01:02:02.846Z,27.60
2018-03-26T01:04:30.446Z,30.00
2018-03-26T01:06:58.076Z,29.73
2018-03-26T01:09:25.688Z,26.90
2018-03-26T01:11:53.289Z,27.97
2018-03-26T01:14:20.930Z,27.80
2018-03-26T01:16:49.294Z,27.37
2018-03-26T01:19:16.919Z,25.23
2018-03-26T01:21:44.550Z,25.67
2018-03-26T01:24:12.196Z,25.97
2018-03-26T01:26:40.568Z,25.97
2018-03-26T01:29:08.962Z,26.53
2018-03-26T01:31:36.553Z,25.37
2018-03-26T01:34:04.195Z,25.93
2018-03-26T01:36:31.867Z,27.33
2018-03-26T01:38:59.499Z,28.90
2018-03-26T01:41:27.096Z,25.87
2018-03-26T01:43:54.713Z,27.60
2018-03-26T01:46:23.106Z,29.63
2018-03-26T01:48:50.735Z,26.53
2018-03-26T01:51:19.347Z,27.77
2018-03-26T01:53:46.984Z,27.90
2018-03-26T01:56:15.361Z,26.33
2018-03-26T01:58:43.761Z,26.53
2018-03-26T02:01:11.363Z,26.60
2018-03-26T02:03:38.993Z,27.70
2018-03-26T02:06:06.608Z,27.20
2018-03-26T02:08:34.205Z,26.37
2018-03-26T02:11:01.842Z,27.07
2018-03-26T02:13:30.196Z,29.30
2018-03-26T02:15:57.814Z,27.77
2018-03-26T02:18:25.429Z,26.87
2018-03-26T02:20:53.032Z,25.17
2018-03-26T02:23:20.665Z,24.43
2018-03-26T02:25:48.329Z,25.63
2018-03-26T02:28:16.732Z,27.47
2018-03-26T02:30:44.395Z,25.10
2018-03-26T02:33:11.990Z,25.57
2018-03-26T02:35:39.590Z,28.17
2018-03-26T02:38:07.227Z,28.53
2018-03-26T02:40:34.842Z,26.73
2018-03-26T02:43:02.506Z,28.07
2018-03-26T02:45:30.114Z,26.17
2018-03-26T02:47:58.470Z,24.53
2018-03-26T02:50:26.112Z,24.93
2018-03-26T02:52:53.699Z,25.10
2018-03-26T02:55:21.557Z,29.30
2018-03-26T02:57:49.166Z,29.50
2018-03-26T03:00:16.784Z,31.30
2018-03-26T03:02:44.388Z,28.80
2018-03-26T03:05:12.010Z,29.30
2018-03-26T03:07:39.647Z,30.77
2018-03-26T03:10:07.282Z,30.00
2018-03-26T03:12:35.780Z,31.83
2018-03-26T03:15:03.370Z,28.70
2018-03-26T03:17:31.011Z,28.63
2018-03-26T03:19:58.644Z,28.33
2018-03-26T03:22:26.230Z,29.03
2018-03-26T03:24:53.866Z,30.13
2018-03-26T03:27:21.459Z,35.83
2018-03-26T03:29:49.043Z,33.73
2018-03-26T03:32:17.467Z,35.43
2018-03-26T03:34:45.131Z,33.77
2018-03-26T03:37:12.750Z,33.33
2018-03-26T03:39:40.385Z,31.87
2018-03-26T03:42:07.975Z,29.30
2018-03-26T03:44:35.622Z,28.83
2018-03-26T03:47:03.983Z,34.40
2018-03-26T03:49:31.616Z,31.43
2018-03-26T03:51:59.237Z,34.63
2018-03-26T03:54:26.853Z,31.73
2018-03-26T03:56:54.449Z,37.30
2018-03-26T03:59:22.839Z,35.27
2018-03-26T04:01:50.439Z,35.67
2018-03-26T04:04:18.058Z,36.40
2018-03-26T04:06:45.658Z,30.60
2018-03-26T04:09:13.300Z,31.80
2018-03-26T04:11:40.918Z,35.53
2018-03-26T04:14:09.315Z,33.40
2018-03-26T04:16:36.927Z,33.17
2018-03-26T04:19:04.585Z,32.53
2018-03-26T04:21:32.175Z,36.20
2018-03-26T04:24:00.542Z,37.70
2018-03-26T04:26:28.177Z,31.93
2018-03-26T04:28:55.776Z,36.77
2018-03-26T04:31:24.170Z,36.47
2018-03-26T04:33:51.869Z,34.00
2018-03-26T04:36:19.470Z,31.17
2018-03-26T04:38:47.862Z,36.40
2018-03-26T04:41:17.019Z,40.03
2018-03-26T04:43:44.616Z,43.43
2018-03-26T04:46:12.993Z,36.40
2018-03-26T04:48:41.390Z,34.10
2018-03-26T04:51:08.985Z,41.63
2018-03-26T04:53:37.431Z,40.27
2018-03-26T04:56:05.023Z,36.77
2018-03-26T04:58:32.640Z,38.10
2018-03-26T05:01:00.262Z,35.33
2018-03-26T05:03:38.506Z,37.27
2018-03-26T05:06:06.166Z,36.70
2018-03-26T05:08:33.796Z,35.30
2018-03-26T05:11:01.398Z,35.50
2018-03-26T05:13:29.029Z,37.83
2018-03-26T05:15:57.398Z,37.67
2018-03-26T05:18:25.017Z,35.77
2018-03-26T05:20:52.614Z,38.23
2018-03-26T05:23:20.286Z,40.50
2018-03-26T05:25:48.689Z,38.63
2018-03-26T05:28:16.379Z,34.47
2018-03-26T05:30:44.023Z,35.03
2018-03-26T05:33:11.603Z,33.73
2018-03-26T05:35:39.227Z,33.73
2018-03-26T05:38:07.938Z,33.77
2018-03-26T05:40:35.601Z,33.27
2018-03-26T05:43:03.190Z,36.63
2018-03-26T05:45:30.807Z,40.47
2018-03-26T05:47:58.487Z,35.67
2018-03-26T05:50:26.082Z,38.00
2018-03-26T05:52:53.794Z,35.07
2018-03-26T05:55:21.383Z,37.07
2018-03-26T05:57:49.010Z,36.20
2018-03-26T06:00:16.649Z,37.93
2018-03-26T06:02:45.053Z,43.10
2018-03-26T06:05:12.698Z,38.13
2018-03-26T06:07:40.287Z,35.73
2018-03-26T06:10:07.914Z,41.17
2018-03-26T06:12:35.641Z,43.10
2018-03-26T06:15:04.039Z,37.20
2018-03-26T06:17:32.460Z,35.60
2018-03-26T06:20:00.097Z,37.43
2018-03-26T06:22:27.690Z,37.03
2018-03-26T06:24:55.415Z,36.83
2018-03-26T06:27:23.020Z,39.67
2018-03-26T06:29:50.649Z,42.03
2018-03-26T06:32:18.259Z,35.17
2018-03-26T06:34:45.900Z,42.07
2018-03-26T06:37:16.118Z,37.10
2018-03-26T06:39:43.712Z,41.50
2018-03-26T06:42:12.145Z,38.33
2018-03-26T06:44:39.759Z,37.73
2018-03-26T06:47:08.130Z,35.30
2018-03-26T06:49:36.635Z,37.13
2018-03-26T06:52:04.334Z,36.47
2018-03-26T06:54:32.686Z,35.17
2018-03-26T06:57:00.293Z,34.40
2018-03-26T06:59:27.934Z,33.73
2018-03-26T07:01:55.606Z,31.13
2018-03-26T07:04:23.248Z,31.33
2018-03-26T07:06:50.864Z,32.13
2018-03-26T07:09:19.114Z,43.97
2018-03-26T07:11:47.520Z,31.13
2018-03-26T07:14:15.962Z,29.87
2018-03-26T07:16:43.575Z,30.10
2018-03-26T07:19:11.218Z,29.47
2018-03-26T07:21:39.697Z,28.80
2018-03-26T07:24:08.092Z,36.53
2018-03-26T07:26:35.686Z,32.87
2018-03-26T07:29:03.303Z,30.90
2018-03-26T07:31:30.981Z,31.10
2018-03-26T07:33:58.595Z,36.40
2018-03-26T07:36:26.225Z,34.87
2018-03-26T07:38:53.813Z,33.23
2018-03-26T07:41:21.435Z,34.17
2018-03-26T07:43:49.078Z,37.87
2018-03-26T07:46:16.696Z,35.90
2018-03-26T07:48:44.356Z,32.50
2018-03-26T07:51:11.953Z,35.53
2018-03-26T07:53:39.594Z,33.90
2018-03-26T07:56:07.982Z,35.73
2018-03-26T07:58:36.370Z,36.70
2018-03-26T08:01:04.004Z,37.57
2018-03-26T08:03:32.407Z,38.37
2018-03-26T08:06:00.011Z,36.43
2018-03-26T08:08:27.658Z,36.67
2018-03-26T08:10:55.346Z,36.40
2018-03-26T08:13:22.961Z,35.40
2018-03-26T08:15:50.614Z,35.50
2018-03-26T08:18:18.253Z,38.17
2018-03-26T08:20:46.655Z,36.77
2018-03-26T08:23:14.339Z,43.87
2018-03-26T08:25:41.956Z,38.83
2018-03-26T08:28:10.337Z,36.43
2018-03-26T08:30:38.723Z,36.50
2018-03-26T08:33:06.378Z,40.50
2018-03-26T08:35:34.751Z,36.00
2018-03-26T08:38:03.150Z,40.93
2018-03-26T08:40:30.770Z,36.73
2018-03-26T08:42:58.383Z,38.50
2018-03-26T08:45:26.019Z,37.00
2018-03-26T08:47:54.397Z,39.80
2018-03-26T08:50:22.806Z,35.57
2018-03-26T08:52:50.466Z,40.63
2018-03-26T08:55:18.073Z,40.30
2018-03-26T08:57:46.477Z,37.90
2018-03-26T09:00:14.067Z,37.30
2018-03-26T09:02:41.708Z,38.27
2018-03-26T09:05:09.293Z,39.10
2018-03-26T09:07:36.951Z,40.40
2018-03-26T09:10:04.556Z,36.20
2018-03-26T09:12:32.923Z,38.17
2018-03-26T09:15:00.545Z,38.20
2018-03-26T09:17:28.197Z,39.07
2018-03-26T09:19:55.858Z,41.87
2018-03-26T09:22:23.449Z,38.10
2018-03-26T09:24:51.081Z,36.30
2018-03-26T09:27:18.675Z,40.80
2018-03-26T09:29:46.313Z,39.90
2018-03-26T09:32:13.956Z,42.20
2018-03-26T09:34:41.548Z,41.77
2018-03-26T09:37:09.178Z,44.60
2018-03-26T09:39:36.771Z,41.63
2018-03-26T09:42:04.433Z,43.67
2018-03-26T09:44:32.040Z,40.10
2018-03-26T09:46:59.629Z,41.57
2018-03-26T09:49:27.259Z,42.83
2018-03-26T09:51:54.879Z,45.80
2018-03-26T09:54:24.242Z,45.63
2018-03-26T09:56:51.880Z,46.87
2018-03-26T09:59:19.491Z,43.80
2018-03-26T10:01:52.763Z,44.40
2018-03-26T10:04:20.360Z,48.10
2018-03-26T10:06:47.985Z,46.33
2018-03-26T10:09:15.677Z,44.90
2018-03-26T10:11:43.382Z,46.20
2018-03-26T10:14:11.016Z,52.10
2018-03-26T10:16:39.412Z,48.67
2018-03-26T10:19:07.133Z,49.83
2018-03-26T10:21:34.774Z,55.53
2018-03-26T10:24:02.373Z,48.67
2018-03-26T10:26:30.789Z,52.83
2018-03-26T10:28:58.381Z,51.60
2018-03-26T10:31:25.993Z,49.07
2018-03-26T10:33:53.671Z,48.07
2018-03-26T10:36:21.294Z,45.73
2018-03-26T10:38:49.659Z,49.47
2018-03-26T10:41:17.256Z,50.93
2018-03-26T10:43:44.906Z,50.23
2018-03-26T10:46:13.267Z,53.97
2018-03-26T10:48:42.512Z,51.17
2018-03-26T10:51:10.198Z,54.40
2018-03-26T10:53:37.768Z,49.23
2018-03-26T10:56:05.358Z,49.60
2018-03-26T10:58:33.021Z,55.87
2018-03-26T11:01:01.387Z,58.40
2018-03-26T11:03:29.051Z,61.57
2018-03-26T11:05:57.465Z,59.33
2018-03-26T11:08:25.094Z,60.17
2018-03-26T11:10:53.486Z,58.67
2018-03-26T11:13:21.180Z,55.30
2018-03-26T11:15:48.815Z,59.40
2018-03-26T11:18:16.414Z,54.43
2018-03-26T11:20:44.021Z,56.73
2018-03-26T11:23:11.676Z,52.07
2018-03-26T11:25:40.053Z,50.30
2018-03-26T11:28:08.451Z,52.70
2018-03-26T11:30:36.698Z,53.00
2018-03-26T11:33:05.108Z,50.10
2018-03-26T11:35:32.711Z,49.50
2018-03-26T11:38:00.326Z,52.43
2018-03-26T11:40:27.921Z,50.00
2018-03-26T11:42:55.628Z,53.43
2018-03-26T11:45:23.997Z,48.87
2018-03-26T11:47:52.367Z,44.87
2018-03-26T11:50:20.008Z,44.47
2018-03-26T11:52:47.648Z,45.07
2018-03-26T11:55:15.285Z,42.17
2018-03-26T11:57:43.089Z,44.03
2018-03-26T12:00:10.716Z,46.20
2018-03-26T12:02:38.347Z,39.43
2018-03-26T12:05:06.726Z,34.50
2018-03-26T12:07:35.127Z,35.93
2018-03-26T12:10:02.738Z,32.93
2018-03-26T12:12:30.341Z,32.60
2018-03-26T12:14:57.985Z,32.13
2018-03-26T12:17:26.374Z,33.80
2018-03-26T12:20:06.063Z,29.90
2018-03-26T12:22:33.691Z,33.20
2018-03-26T12:25:09.955Z,31.43
2018-03-26T12:30:41.410Z,33.93
2018-03-26T12:33:09.066Z,34.43
2018-03-26T12:35:49.268Z,35.77
2018-03-26T12:38:16.914Z,39.90
2018-03-26T12:40:51.414Z,34.73
2018-03-26T12:43:19.057Z,36.37
2018-03-26T12:45:59.656Z,40.33
2018-03-26T12:48:27.238Z,35.63
2018-03-26T12:51:06.858Z,40.27
2018-03-26T12:53:34.523Z,44.20
2018-03-26T12:56:02.174Z,41.17
2018-03-26T12:58:51.444Z,45.00
2018-03-26T13:01:30.971Z,44.10
2018-03-26T13:03:58.616Z,44.30
2018-03-26T13:06:26.983Z,44.73
2018-03-26T13:08:55.349Z,40.20
2018-03-26T13:11:23.034Z,45.13
2018-03-26T13:13:51.425Z,40.27
2018-03-26T13:16:19.103Z,39.00
2018-03-26T13:18:46.702Z,38.70
2018-03-26T13:21:14.331Z,41.10
2018-03-26T13:23:41.986Z,31.87
2018-03-26T13:26:09.612Z,35.63
2018-03-26T13:28:37.990Z,35.17
2018-03-26T13:31:06.404Z,44.67
2018-03-26T13:33:34.032Z,47.00
2018-03-26T13:36:03.166Z,49.17
2018-03-26T13:38:30.905Z,48.07
2018-03-26T13:40:58.584Z,55.67
2018-03-26T13:43:26.220Z,51.43
2018-03-26T13:45:53.807Z,49.23
2018-03-26T13:48:21.393Z,47.63
2018-03-26T13:50:49.057Z,45.40
2018-03-26T13:53:17.532Z,46.17
2018-03-26T13:55:45.155Z,44.43
2018-03-26T13:58:12.786Z,47.67
2018-03-26T14:00:41.216Z,39.80
2018-03-26T14:03:09.427Z,42.37
2018-03-26T14:05:37.801Z,41.60
2018-03-26T14:08:06.235Z,38.70
2018-03-26T14:10:45.612Z,33.33
2018-03-26T14:13:25.257Z,32.63
2018-03-26T14:16:06.580Z,29.27
2018-03-26T14:18:34.267Z,32.43
2018-03-26T14:21:01.872Z,32.50
2018-03-26T14:23:30.248Z,31.77
2018-03-26T14:25:58.693Z,27.43
2018-03-26T14:28:26.290Z,23.90
2018-03-26T14:30:54.659Z,22.03
2018-03-26T14:33:23.068Z,20.63
2018-03-26T14:35:50.717Z,15.63
2018-03-26T14:38:18.335Z,18.07
2018-03-26T14:40:45.967Z,19.03
2018-03-26T14:43:13.593Z,15.00
2018-03-26T14:45:41.237Z,17.87
2018-03-26T14:48:09.636Z,17.90
2018-03-26T14:50:37.266Z,16.93
2018-03-26T14:53:05.478Z,16.87
2018-03-26T14:55:33.129Z,20.23
2018-03-26T14:58:01.492Z,17.47
2018-03-26T15:00:29.902Z,12.70
2018-03-26T15:02:57.518Z,13.10
2018-03-26T15:05:25.180Z,12.03
2018-03-26T15:07:52.814Z,11.30
2018-03-26T15:10:20.404Z,13.00
2018-03-26T15:12:48.030Z,9.73
2018-03-26T15:15:15.728Z,9.53
2018-03-26T15:17:44.162Z,13.73
2018-03-26T15:20:12.698Z,13.20
2018-03-26T15:22:41.100Z,10.57
2018-03-26T15:25:10.442Z,11.80
2018-03-26T15:27:38.053Z,10.20
2018-03-26T15:30:05.742Z,11.80
2018-03-26T15:32:33.378Z,10.07
2018-03-26T15:35:01.017Z,11.00
2018-03-26T15:37:29.432Z,10.83
2018-03-26T15:39:57.072Z,9.43
2018-03-26T15:42:24.668Z,13.73
2018-03-26T15:44:53.073Z,11.67
2018-03-26T15:47:20.764Z,13.27
2018-03-26T15:49:49.185Z,12.53
2018-03-26T15:52:16.884Z,11.53
2018-03-26T15:54:44.502Z,11.07
2018-03-26T15:57:12.170Z,13.37
2018-03-26T15:59:40.726Z,12.07
2018-03-26T16:02:07.865Z,10.53
2018-03-26T16:04:35.495Z,10.37
2018-03-26T16:07:03.110Z,10.50
2018-03-26T16:09:30.715Z,12.97
2018-03-26T16:11:58.437Z,12.00
2018-03-26T16:14:26.043Z,11.43
2018-03-26T16:16:54.442Z,10.17
2018-03-26T16:19:22.862Z,11.90
2018-03-26T16:21:50.506Z,9.80
2018-03-26T16:24:18.160Z,9.70
2018-03-26T16:26:45.817Z,9.50
2018-03-26T16:29:13.403Z,10.63
2018-03-26T16:31:41.177Z,11.07
2018-03-26T16:34:08.770Z,10.60
2018-03-26T16:36:37.158Z,11.00
2018-03-26T16:39:05.541Z,10.43
2018-03-26T16:41:47.817Z,10.53
2018-03-26T16:44:15.407Z,9.70
2018-03-26T16:46:43.057Z,11.07
2018-03-26T16:49:11.467Z,12.27
2018-03-26T16:51:39.075Z,12.73
2018-03-26T16:54:06.703Z,10.93
2018-03-26T16:56:34.323Z,10.67
2018-03-26T16:59:01.940Z,10.57
2018-03-26T17:01:29.567Z,11.73
2018-03-26T17:03:57.187Z,11.37
2018-03-26T17:06:25.578Z,12.93
2018-03-26T17:08:54.033Z,9.83
2018-03-26T17:11:21.962Z,10.03
2018-03-26T17:13:49.635Z,12.30
2018-03-26T17:16:17.256Z,8.77
2018-03-26T17:18:44.971Z,12.30
2018-03-26T17:21:12.667Z,11.07
2018-03-26T17:23:41.046Z,11.90
2018-03-26T17:26:09.442Z,11.00
2018-03-26T17:28:37.102Z,11.53
2018-03-26T17:31:04.748Z,10.30
2018-03-26T17:33:32.386Z,11.33
2018-03-26T17:36:00.282Z,11.57
2018-03-26T17:38:28.007Z,11.03
2018-03-26T17:40:55.618Z,10.17
2018-03-26T17:43:23.531Z,12.60
2018-03-26T17:45:51.350Z,13.43
2018-03-26T17:48:18.960Z,8.77
2018-03-26T17:50:46.556Z,12.43
2018-03-26T17:53:14.986Z,12.43
2018-03-26T17:55:42.643Z,12.90
2018-03-26T17:58:10.289Z,9.77
2018-03-26T18:00:37.890Z,10.77
2018-03-26T18:03:05.546Z,11.97
2018-03-26T18:05:33.169Z,9.30
2018-03-26T18:08:00.846Z,9.37
2018-03-26T18:10:28.434Z,12.73
2018-03-26T18:12:56.804Z,10.60
2018-03-26T18:15:24.451Z,10.03
2018-03-26T18:17:52.067Z,9.67
2018-03-26T18:20:19.714Z,13.50
2018-03-26T18:22:47.354Z,10.37
2018-03-26T18:25:15.750Z,9.37
2018-03-26T18:27:43.407Z,10.17
2018-03-26T18:30:11.803Z,12.13
2018-03-26T18:32:39.400Z,10.10
2018-03-26T18:35:07.038Z,11.27
2018-03-26T18:37:34.731Z,11.27
2018-03-26T18:40:02.420Z,11.70
2018-03-26T18:42:30.833Z,10.17
2018-03-26T18:44:58.446Z,11.07
2018-03-26T18:47:26.113Z,10.13
2018-03-26T18:49:54.484Z,10.07
2018-03-26T18:52:22.132Z,10.70
2018-03-26T18:54:49.742Z,8.70
2018-03-26T18:57:17.372Z,13.07
2018-03-26T18:59:45.793Z,11.53
2018-03-26T19:02:13.440Z,9.23
2018-03-26T19:04:41.097Z,10.47
2018-03-26T19:07:08.695Z,10.83
2018-03-26T19:09:36.329Z,8.43
2018-03-26T19:12:03.944Z,11.20
2018-03-26T19:14:31.617Z,10.70
2018-03-26T19:17:00.002Z,9.73
2018-03-26T19:19:28.383Z,8.83
2018-03-26T19:21:56.794Z,12.43
2018-03-26T19:24:24.465Z,12.97
2018-03-26T19:26:52.191Z,11.53
2018-03-26T19:29:19.848Z,9.90
2018-03-26T19:31:48.312Z,13.83
2018-03-26T19:34:16.758Z,10.53
2018-03-26T19:36:45.163Z,8.67
2018-03-26T19:39:12.799Z,12.03
2018-03-26T19:41:40.441Z,14.03
2018-03-26T19:44:08.072Z,10.37
2018-03-26T19:46:35.676Z,10.77
2018-03-26T19:49:03.321Z,11.47
2018-03-26T19:51:31.707Z,14.20
2018-03-26T19:53:59.308Z,11.03
2018-03-26T19:56:27.731Z,12.27
2018-03-26T19:58:55.385Z,11.67
2018-03-26T20:01:23.022Z,10.67
2018-03-26T20:03:50.679Z,10.40
2018-03-26T20:06:19.111Z,11.90
2018-03-26T20:08:46.751Z,11.57
2018-03-26T20:11:14.420Z,10.47
2018-03-26T20:13:42.017Z,11.43
2018-03-26T20:16:09.622Z,9.97
2018-03-26T20:18:37.325Z,10.77
2018-03-26T20:21:04.933Z,13.23
2018-03-26T20:23:32.552Z,12.33
2018-03-26T20:26:00.202Z,10.70
2018-03-26T20:28:27.871Z,12.37
2018-03-26T20:30:55.637Z,12.00
2018-03-26T20:33:23.272Z,11.27
2018-03-26T20:35:50.939Z,10.07
2018-03-26T20:38:18.618Z,11.40
2018-03-26T20:40:46.243Z,11.77
2018-03-26T20:43:13.852Z,12.93
2018-03-26T20:45:42.234Z,11.83
2018-03-26T20:48:10.668Z,11.27
2018-03-26T20:50:38.261Z,11.07
2018-03-26T20:53:05.904Z,13.20
2018-03-26T20:55:33.553Z,13.93
2018-03-26T20:58:01.220Z,12.90
2018-03-26T21:00:28.883Z,12.93
2018-03-26T21:02:56.551Z,10.93
2018-03-26T21:05:24.955Z,12.57
2018-03-26T21:07:52.625Z,11.90
2018-03-26T21:10:21.268Z,12.23
2018-03-26T21:12:48.850Z,10.63
2018-03-26T21:15:16.490Z,13.50
2018-03-26T21:17:44.126Z,13.10
2018-03-26T21:20:11.815Z,11.60
2018-03-26T21:22:39.483Z,13.03
2018-03-26T21:25:07.149Z,11.47
2018-03-26T21:27:47.318Z,11.10
2018-03-26T21:30:16.524Z,12.47
2018-03-26T21:32:44.363Z,13.37
2018-03-26T21:35:12.168Z,10.33
2018-03-26T21:37:39.811Z,12.40
2018-03-26T21:40:07.487Z,12.40
2018-03-26T21:42:35.358Z,13.13
2018-03-26T21:45:03.160Z,15.47
2018-03-26T21:47:30.824Z,10.60
2018-03-26T21:49:58.586Z,10.00
2018-03-26T21:52:26.178Z,10.70
2018-03-26T21:54:54.237Z,12.77
2018-03-26T21:57:23.978Z,10.90
2018-03-26T21:59:52.566Z,10.37
2018-03-26T22:02:20.209Z,13.03
2018-03-26T22:04:47.930Z,11.97
2018-03-26T22:07:15.701Z,11.50
2018-03-26T22:09:43.403Z,12.00
2018-03-26T22:12:11.796Z,10.10
2018-03-26T22:14:40.501Z,9.33
2018-03-26T22:17:08.123Z,10.93
2018-03-26T22:19:36.493Z,10.93
2018-03-26T22:22:04.217Z,11.87
2018-03-26T22:24:33.088Z,10.20
2018-03-26T22:27:04.398Z,12.33
2018-03-26T22:29:33.858Z,10.97
2018-03-26T22:32:02.796Z,11.17
2018-03-26T22:34:31.234Z,12.43
2018-03-26T22:36:59.004Z,10.33
2018-03-26T22:39:26.806Z,9.80
2018-03-26T22:41:57.849Z,10.17
2018-03-26T22:44:29.372Z,11.67
2018-03-26T22:47:00.093Z,9.47
2018-03-26T22:49:28.258Z,10.57
2018-03-26T22:51:55.911Z,11.53
2018-03-26T22:54:25.711Z,11.87
2018-03-26T22:56:54.167Z,8.60
2018-03-26T22:59:21.770Z,14.07
2018-03-26T23:01:55.754Z,12.57
2018-03-26T23:04:24.371Z,12.83
2018-03-26T23:06:52.718Z,10.03
2018-03-26T23:09:20.570Z,11.47
2018-03-26T23:11:48.232Z,13.00
2018-03-26T23:14:17.836Z,11.77
2018-03-26T23:16:46.753Z,11.63
2018-03-26T23:19:15.031Z,10.77
2018-03-26T23:21:42.777Z,10.10
2018-03-26T23:24:10.426Z,11.30
2018-03-26T23:26:38.112Z,11.03
2018-03-26T23:29:05.735Z,9.13
2018-03-26T23:31:34.261Z,9.87
2018-03-26T23:34:02.758Z,9.50
2018-03-26T23:36:34.185Z,11.33
2018-03-26T23:39:01.787Z,9.63
2018-03-26T23:41:30.394Z,10.93
2018-03-26T23:43:58.832Z,11.20
2018-03-26T23:46:26.462Z,11.00
2018-03-26T23:48:54.241Z,8.83
2018-03-26T23:51:21.851Z,11.00
2018-03-26T23:53:50.262Z,9.03
2018-03-26T23:56:18.506Z,10.73
2018-03-26T23:58:46.899Z,9.63
